Time;durP1;ratioP1;P1;durP2;ratioP2;P2;SDS_P1;SDS_P2;PMS_P1;PMS_P2;Temp;Humidity;BMP_temperature;BMP_pressure;BME280_temperature;BME280_humidity;BME280_pressure;Samples;Min_cycle;Max_cycle;Signal;HPM_P1;HPM_P2
2022/08/21 00:00:27;;;;;;;;;;;;;;;27.07;43.06;98847.19;5034978;28;19909;-75
2022/08/21 00:03:03;;;;;;;;;;;;;;;27.08;43.70;98846.91;5034980;28;19909;-75
2022/08/21 00:05:29;;;;;;;;;;;;;;;27.07;43.00;98845.28;5035010;28;20401;-75
2022/08/21 00:07:55;;;;;;;;;;;;;;;27.06;43.32;98851.81;5034754;28;19913;-75
2022/08/21 00:10:20;;;;;;;;;;;;;;;27.01;43.14;98849.22;5034855;28;19916;-76
2022/08/21 00:12:46;;;;;;;;;;;;;;;27.08;44.02;98840.69;5034880;28;19909;-75
2022/08/21 00:15:13;;;;;;;;;;;;;;;27.19;43.12;98836.66;5034708;28;19931;-75
2022/08/21 00:17:38;;;;;;;;;;;;;;;27.15;44.01;98835.66;5034505;28;19924;-75
2022/08/21 00:20:06;;;;;;;;;;;;;;;27.14;44.30;98832.13;5034624;28;19909;-75
2022/08/21 00:22:32;;;;;;;;;;;;;;;27.12;43.81;98826.22;5034559;28;19990;-75
2022/08/21 00:24:57;;;;;;;;;;;;;;;27.19;43.58;98837.44;5033266;28;19964;-75
2022/08/21 00:27:23;;;;;;;;;;;;;;;27.28;43.44;98837.53;5034344;28;19913;-75
2022/08/21 00:29:48;;;;;;;;;;;;;;;27.29;43.00;98830.19;5034181;28;19909;-75
2022/08/21 00:32:18;;;;;;;;;;;;;;;27.34;43.78;98838.22;5034209;28;20011;-75
2022/08/21 00:34:44;;;;;;;;;;;;;;;27.33;43.86;98842.03;5033051;28;19916;-75
2022/08/21 00:37:09;;;;;;;;;;;;;;;27.29;42.88;98847.25;5034214;28;20376;-75
2022/08/21 00:39:34;;;;;;;;;;;;;;;27.19;43.26;98847.47;5034182;28;19905;-76
2022/08/21 00:42:00;;;;;;;;;;;;;;;27.20;43.71;98849.91;5034186;28;19913;-76
2022/08/21 00:44:25;;;;;;;;;;;;;;;27.22;42.97;98846.88;5034081;28;20004;-75
2022/08/21 00:46:50;;;;;;;;;;;;;;;27.25;43.02;98848.19;5033925;28;19920;-75
2022/08/21 00:49:16;;;;;;;;;;;;;;;27.13;43.08;98835.16;5032454;28;19959;-75
2022/08/21 00:51:43;;;;;;;;;;;;;;;26.99;43.91;98846.00;5033987;28;19909;-75
2022/08/21 00:54:10;;;;;;;;;;;;;;;27.01;43.55;98834.88;5033891;28;19913;-75
2022/08/21 00:56:36;;;;;;;;;;;;;;;26.98;43.41;98832.75;5032418;28;19913;-75
2022/08/21 00:59:01;;;;;;;;;;;;;;;26.92;43.54;98826.63;5033801;28;20425;-75
2022/08/21 01:01:27;;;;;;;;;;;;;;;26.88;44.04;98828.34;5032487;28;19909;-75
2022/08/21 01:03:53;;;;;;;;;;;;;;;26.90;44.14;98813.38;5032533;28;19909;-75
2022/08/21 01:06:18;;;;;;;;;;;;;;;26.97;44.08;98810.25;5033804;28;19913;-75
2022/08/21 01:08:43;;;;;;;;;;;;;;;27.01;44.47;98807.78;5033742;28;19909;-75
2022/08/21 01:11:09;;;;;;;;;;;;;;;26.98;43.97;98801.06;5032476;28;20000;-75
2022/08/21 01:13:36;;;;;;;;;;;;;;;27.02;44.49;98795.84;5065632;28;19931;-75
2022/08/21 01:16:03;;;;;;;;;;;;;;;27.03;43.20;98790.09;5033424;28;19909;-75
2022/08/21 01:18:28;;;;;;;;;;;;;;;27.10;44.11;98774.22;5031954;28;20384;-75
2022/08/21 01:20:59;;;;;;;;;;;;;;;27.15;43.56;98778.75;5033241;28;19916;-75
2022/08/21 01:23:24;;;;;;;;;;;;;;;27.20;44.30;98771.28;5033570;28;19913;-76
2022/08/21 01:25:49;;;;;;;;;;;;;;;27.28;42.88;98772.47;5032202;28;19917;-75
2022/08/21 01:28:15;;;;;;;;;;;;;;;27.28;44.46;98774.38;5033229;28;19967;-75
2022/08/21 01:30:42;;;;;;;;;;;;;;;27.31;43.01;98776.47;5033284;28;19958;-75
2022/08/21 01:33:07;;;;;;;;;;;;;;;27.38;43.14;98769.53;5033199;28;19916;-75
2022/08/21 01:35:33;;;;;;;;;;;;;;;27.41;43.04;98773.53;5033281;28;19909;-75
2022/08/21 01:37:58;;;;;;;;;;;;;;;27.38;43.31;98768.72;5033306;28;19916;-75
2022/08/21 01:40:24;;;;;;;;;;;;;;;27.36;44.12;98766.31;5031748;28;19971;-76
2022/08/21 01:42:50;;;;;;;;;;;;;;;27.35;43.73;98772.84;5033170;28;20363;-75
2022/08/21 01:45:15;;;;;;;;;;;;;;;27.33;43.90;98771.56;5064842;28;19909;-75
2022/08/21 01:47:41;;;;;;;;;;;;;;;27.35;43.55;98763.91;5033032;28;19913;-75
2022/08/21 01:50:08;;;;;;;;;;;;;;;27.32;44.39;98768.03;5032870;28;19983;-75
2022/08/21 01:52:33;;;;;;;;;;;;;;;27.33;42.94;98766.94;5032651;28;19905;-75
2022/08/21 01:54:59;;;;;;;;;;;;;;;27.30;43.20;98759.41;5031645;28;19909;-75
2022/08/21 01:57:25;;;;;;;;;;;;;;;27.30;43.24;98762.13;5032831;28;20003;-75
2022/08/21 01:59:50;;;;;;;;;;;;;;;27.30;43.43;98772.97;5032243;28;19919;-75
2022/08/21 02:02:15;;;;;;;;;;;;;;;27.27;42.79;98770.88;5032408;28;19916;-75
2022/08/21 02:04:40;;;;;;;;;;;;;;;27.24;43.78;98779.63;5032574;28;19952;-75
2022/08/21 02:07:06;;;;;;;;;;;;;;;27.22;44.28;98773.69;5064333;28;19920;-75
2022/08/21 02:09:32;;;;;;;;;;;;;;;27.23;42.69;98770.69;5064660;28;19909;-75
2022/08/21 02:11:57;;;;;;;;;;;;;;;27.23;43.74;98773.41;5032708;28;19909;-75
2022/08/21 02:14:22;;;;;;;;;;;;;;;27.29;44.09;98779.50;5032435;28;19909;-75
2022/08/21 02:16:47;;;;;;;;;;;;;;;27.31;43.00;98790.84;5032312;28;19979;-75
2022/08/21 02:19:14;;;;;;;;;;;;;;;27.21;43.37;98810.84;5030963;28;20310;-75
2022/08/21 02:21:40;;;;;;;;;;;;;;;26.98;44.32;98808.38;5032316;28;19909;-75
2022/08/21 02:24:06;;;;;;;;;;;;;;;26.92;45.49;98810.38;5032117;28;19909;-76
2022/08/21 02:26:31;;;;;;;;;;;;;;;26.87;44.00;98810.47;5063988;28;19920;-75
2022/08/21 02:28:57;;;;;;;;;;;;;;;26.84;43.27;98808.38;5032089;28;19909;-75
2022/08/21 02:31:22;;;;;;;;;;;;;;;26.80;45.28;98815.50;5030746;28;20302;-75
2022/08/21 02:33:47;;;;;;;;;;;;;;;26.72;44.45;98813.47;5032171;28;19966;-75
2022/08/21 02:36:12;;;;;;;;;;;;;;;26.69;44.33;98816.78;5032132;28;19915;-75
2022/08/21 02:38:39;;;;;;;;;;;;;;;26.71;44.94;98812.66;5064075;28;19916;-75
2022/08/21 02:41:09;;;;;;;;;;;;;;;26.67;46.68;98816.28;5032161;28;19963;-75
2022/08/21 02:43:35;;;;;;;;;;;;;;;26.57;45.85;98820.00;5032080;28;20374;-75
2022/08/21 02:46:00;;;;;;;;;;;;;;;26.58;45.64;98819.69;5030589;28;19909;-75
2022/08/21 02:48:28;;;;;;;;;;;;;;;26.53;47.80;98832.50;5032317;28;19919;-75
2022/08/21 02:50:55;;;;;;;;;;;;;;;26.49;47.57;98840.44;5063866;28;19968;-75
2022/08/21 02:53:21;;;;;;;;;;;;;;;26.54;46.74;98853.88;5031745;28;20382;-75
2022/08/21 02:55:48;;;;;;;;;;;;;;;26.52;45.50;98866.09;5031932;28;19909;-75
2022/08/21 02:58:15;;;;;;;;;;;;;;;26.38;46.26;98870.69;5031797;28;20348;-75
2022/08/21 03:00:40;;;;;;;;;;;;;;;26.25;47.48;98870.34;5031533;28;19913;-75
2022/08/21 03:03:06;;;;;;;;;;;;;;;26.28;46.88;98877.88;5063699;28;19909;-75
2022/08/21 03:05:32;;;;;;;;;;;;;;;26.31;46.38;98870.25;5031669;28;19909;-75
2022/08/21 03:07:58;;;;;;;;;;;;;;;26.34;46.73;98873.19;5031529;28;19913;-75
2022/08/21 03:10:24;;;;;;;;;;;;;;;26.36;46.36;98873.69;5063734;28;20419;-75
2022/08/21 03:12:50;;;;;;;;;;;;;;;26.40;46.43;98872.00;5034698;28;19940;-75
2022/08/21 03:15:17;;;;;;;;;;;;;;;26.43;46.48;98879.53;5035817;28;20006;-75
2022/08/21 03:17:42;;;;;;;;;;;;;;;26.47;45.84;98879.75;5035608;28;20018;-75
2022/08/21 03:20:08;;;;;;;;;;;;;;;26.46;44.83;98881.63;5035757;28;20418;-75
2022/08/21 03:22:33;;;;;;;;;;;;;;;26.44;45.61;98891.97;5035526;28;19905;-75
2022/08/21 03:24:59;;;;;;;;;;;;;;;26.33;46.31;98890.53;5035770;28;19932;-75
2022/08/21 03:27:26;;;;;;;;;;;;;;;26.35;46.65;98888.34;5035431;28;20317;-75
2022/08/21 03:29:52;;;;;;;;;;;;;;;26.37;45.83;98888.84;5035645;28;19909;-75
2022/08/21 03:32:17;;;;;;;;;;;;;;;26.40;46.37;98890.16;5067485;28;20463;-75
2022/08/21 03:34:42;;;;;;;;;;;;;;;26.38;47.18;98881.53;5034163;28;19909;-75
2022/08/21 03:37:08;;;;;;;;;;;;;;;26.38;46.38;98884.22;5035447;28;19931;-75
2022/08/21 03:39:34;;;;;;;;;;;;;;;26.42;46.67;98872.50;5035452;28;19912;-76
2022/08/21 03:41:59;;;;;;;;;;;;;;;26.42;47.07;98867.09;5035846;28;19909;-75
2022/08/21 03:44:25;;;;;;;;;;;;;;;26.47;47.23;98869.72;5034075;28;20003;-75
2022/08/21 03:46:50;;;;;;;;;;;;;;;26.50;46.62;98871.81;5035209;28;19920;-75
2022/08/21 03:49:16;;;;;;;;;;;;;;;26.47;46.93;98867.00;5035151;28;20397;-75
2022/08/21 03:51:41;;;;;;;;;;;;;;;26.52;46.83;98868.81;5034863;28;20043;-75
2022/08/21 03:54:06;;;;;;;;;;;;;;;26.59;46.67;98867.31;5035031;28;19905;-75
2022/08/21 03:56:31;;;;;;;;;;;;;;;26.65;45.30;98862.59;5033833;28;19981;-75
2022/08/21 03:58:57;;;;;;;;;;;;;;;26.51;47.38;98870.72;5034953;28;20438;-75
2022/08/21 04:01:22;;;;;;;;;;;;;;;26.45;46.80;98866.50;5034791;28;20467;-75
2022/08/21 04:03:48;;;;;;;;;;;;;;;26.40;48.55;98868.50;5034914;28;19908;-75
2022/08/21 04:06:13;;;;;;;;;;;;;;;26.37;48.98;98863.69;5034960;28;19909;-75
2022/08/21 04:08:38;;;;;;;;;;;;;;;26.32;49.14;98861.03;5034692;28;20000;-75
2022/08/21 04:11:05;;;;;;;;;;;;;;;26.17;48.70;98860.19;5034598;28;19909;-76
2022/08/21 04:13:30;;;;;;;;;;;;;;;25.96;49.79;98865.13;5066731;28;19909;-75
2022/08/21 04:15:57;;;;;;;;;;;;;;;25.88;51.00;98865.78;5034773;28;19963;-75
2022/08/21 04:18:23;;;;;;;;;;;;;;;25.80;51.08;98874.56;5034424;28;19960;-75
2022/08/21 04:20:49;;;;;;;;;;;;;;;25.79;52.08;98874.88;5034589;28;19916;-75
2022/08/21 04:23:14;;;;;;;;;;;;;;;25.84;52.09;98891.00;5065822;28;20309;-75
2022/08/21 04:25:40;;;;;;;;;;;;;;;25.81;49.33;98897.81;5034667;28;19909;-75
2022/08/21 04:28:05;;;;;;;;;;;;;;;25.77;50.32;98887.88;5034413;28;20005;-75
2022/08/21 04:30:30;;;;;;;;;;;;;;;25.73;53.43;98893.06;5034397;28;20408;-75
2022/08/21 04:32:56;;;;;;;;;;;;;;;25.64;55.60;98905.59;5034600;28;20416;-75
2022/08/21 04:35:22;;;;;;;;;;;;;;;25.53;55.02;98909.56;5066546;28;19959;-76
2022/08/21 04:37:48;;;;;;;;;;;;;;;25.45;53.67;98911.00;5034504;28;19971;-76
2022/08/21 04:40:15;;;;;;;;;;;;;;;25.36;51.46;98912.75;5034284;28;19935;-75
2022/08/21 04:42:43;;;;;;;;;;;;;;;25.26;53.91;98900.16;5034168;28;19915;-76
2022/08/21 04:45:08;;;;;;;;;;;;;;;25.23;54.50;98894.50;5034014;28;19909;-76
2022/08/21 04:47:34;;;;;;;;;;;;;;;25.08;51.68;98881.19;5033928;28;19920;-76
2022/08/21 04:49:59;;;;;;;;;;;;;;;25.05;54.16;98887.97;5033967;28;20051;-76
2022/08/21 04:52:25;;;;;;;;;;;;;;;24.95;56.07;98891.56;5033864;28;19916;-75
2022/08/21 04:54:51;;;;;;;;;;;;;;;24.90;54.89;98896.22;5033807;28;20006;-75
2022/08/21 04:57:17;;;;;;;;;;;;;;;24.95;55.68;98894.28;5034066;28;19908;-75
2022/08/21 04:59:46;;;;;;;;;;;;;;;24.83;57.08;98901.97;5033891;28;19909;-75
2022/08/21 05:02:12;;;;;;;;;;;;;;;24.86;56.93;98900.59;5033786;28;20313;-75
2022/08/21 05:04:41;;;;;;;;;;;;;;;24.89;56.44;98900.03;5033769;28;19916;-75
2022/08/21 05:07:10;;;;;;;;;;;;;;;24.88;54.83;98898.41;5033652;28;19940;-75
2022/08/21 05:09:37;;;;;;;;;;;;;;;24.89;57.39;98900.03;5033686;28;20341;-75
2022/08/21 05:12:02;;;;;;;;;;;;;;;24.98;56.97;98898.34;5065691;28;19909;-75
2022/08/21 05:14:27;;;;;;;;;;;;;;;24.99;56.33;98898.03;5032446;28;19912;-75
2022/08/21 05:16:53;;;;;;;;;;;;;;;24.99;55.22;98891.84;5033786;28;20007;-76
2022/08/21 05:19:18;;;;;;;;;;;;;;;24.98;56.34;98885.63;5033792;28;19912;-75
2022/08/21 05:21:44;;;;;;;;;;;;;;;24.90;59.02;98896.22;5033330;28;19916;-75
2022/08/21 05:24:11;;;;;;;;;;;;;;;24.88;56.01;98895.72;5033299;28;19916;-75
2022/08/21 05:26:36;;;;;;;;;;;;;;;24.89;55.06;98894.63;5033214;28;19944;-75
2022/08/21 05:29:02;;;;;;;;;;;;;;;24.87;58.60;98886.81;5065214;28;20002;-75
2022/08/21 05:31:27;;;;;;;;;;;;;;;24.86;54.72;98887.09;5033182;28;19909;-75
2022/08/21 05:33:53;;;;;;;;;;;;;;;24.83;58.40;98891.19;5033080;28;19912;-75
2022/08/21 05:36:18;;;;;;;;;;;;;;;24.81;56.83;98897.97;5032253;28;19909;-75
2022/08/21 05:38:44;;;;;;;;;;;;;;;24.83;56.32;98896.56;5033291;28;19916;-75
2022/08/21 05:41:09;;;;;;;;;;;;;;;24.88;57.81;98895.72;5033100;28;19999;-75
2022/08/21 05:43:36;;;;;;;;;;;;;;;24.92;56.18;98899.44;5033072;28;19916;-75
2022/08/21 05:46:02;;;;;;;;;;;;;;;24.96;57.59;98885.09;5032782;28;19909;-75
2022/08/21 05:48:27;;;;;;;;;;;;;;;24.95;57.68;98888.88;5032748;28;19921;-75
2022/08/21 05:50:52;;;;;;;;;;;;;;;24.97;55.47;98886.72;5033101;28;19909;-75
2022/08/21 05:53:19;;;;;;;;;;;;;;;24.99;53.72;98884.53;5032952;28;19909;-75
2022/08/21 05:55:44;;;;;;;;;;;;;;;24.95;56.24;98888.06;5032811;28;19909;-75
2022/08/21 05:58:11;;;;;;;;;;;;;;;24.95;54.92;98886.19;5032761;28;20473;-75
2022/08/21 06:00:37;;;;;;;;;;;;;;;24.95;56.18;98885.38;5032818;28;20378;-75
2022/08/21 06:03:02;;;;;;;;;;;;;;;24.97;54.70;98896.69;5032828;28;19916;-75
2022/08/21 06:05:27;;;;;;;;;;;;;;;24.88;55.56;98896.53;5032518;28;19909;-75
2022/08/21 06:07:53;;;;;;;;;;;;;;;24.69;58.93;98901.84;5032334;28;19935;-75
2022/08/21 06:10:18;;;;;;;;;;;;;;;24.72;57.32;98900.47;5032564;28;19909;-75
2022/08/21 06:12:44;;;;;;;;;;;;;;;24.74;57.87;98902.88;5032618;28;19916;-75
2022/08/21 06:15:09;;;;;;;;;;;;;;;24.77;56.24;98905.81;5032614;28;19909;-75
2022/08/21 06:17:34;;;;;;;;;;;;;;;24.80;55.45;98904.44;5031113;28;19917;-75
2022/08/21 06:20:00;;;;;;;;;;;;;;;24.76;56.31;98912.31;5032652;28;19913;-75
2022/08/21 06:22:25;;;;;;;;;;;;;;;24.70;57.30;98902.66;5032437;28;19995;-75
2022/08/21 06:24:50;;;;;;;;;;;;;;;24.76;56.20;98909.63;5032424;28;19909;-75
2022/08/21 06:27:17;;;;;;;;;;;;;;;24.84;56.23;98906.28;5032114;28;19913;-75
2022/08/21 06:29:43;;;;;;;;;;;;;;;24.88;57.77;98904.63;5032121;28;19916;-75
2022/08/21 06:32:10;;;;;;;;;;;;;;;24.89;57.25;98908.94;5031938;28;19909;-75
2022/08/21 06:34:36;;;;;;;;;;;;;;;24.88;57.19;98907.31;5032074;28;19913;-74
2022/08/21 06:37:01;;;;;;;;;;;;;;;24.78;57.11;98899.34;5032039;28;19909;-75
2022/08/21 06:39:27;;;;;;;;;;;;;;;24.74;56.18;98900.19;5032237;28;19944;-75
2022/08/21 06:41:52;;;;;;;;;;;;;;;24.74;55.34;98902.88;5032089;28;19909;-75
2022/08/21 06:44:18;;;;;;;;;;;;;;;24.75;55.32;98907.19;5064042;28;19948;-75
2022/08/21 06:46:43;;;;;;;;;;;;;;;24.78;56.22;98898.53;5031451;28;19920;-75
2022/08/21 06:49:08;;;;;;;;;;;;;;;24.73;57.72;98906.69;5031939;28;19909;-75
2022/08/21 06:51:33;;;;;;;;;;;;;;;24.69;56.42;98909.97;5032017;28;19909;-75
2022/08/21 06:53:59;;;;;;;;;;;;;;;24.72;56.78;98905.88;5030604;28;19966;-75
2022/08/21 06:56:24;;;;;;;;;;;;;;;24.77;57.52;98902.31;5031717;28;19913;-75
2022/08/21 06:58:49;;;;;;;;;;;;;;;24.77;56.54;98894.22;5031781;28;19995;-75
2022/08/21 07:01:15;;;;;;;;;;;;;;;24.78;56.92;98903.94;5031884;28;19909;-75
2022/08/21 07:03:42;;;;;;;;;;;;;;;24.70;56.50;98897.25;5063948;28;19920;-75
2022/08/21 07:06:08;;;;;;;;;;;;;;;24.77;56.29;98894.22;5031668;28;19995;-74
2022/08/21 07:08:34;;;;;;;;;;;;;;;24.84;57.77;98892.78;5063434;28;19913;-75
2022/08/21 07:11:01;;;;;;;;;;;;;;;24.84;55.99;98895.47;5063860;28;19931;-75
2022/08/21 07:13:26;;;;;;;;;;;;;;;24.85;56.43;98889.00;5031890;28;19908;-75
2022/08/21 07:15:52;;;;;;;;;;;;;;;24.91;57.69;98879.75;5031632;28;19915;-75
2022/08/21 07:18:17;;;;;;;;;;;;;;;24.96;56.49;98886.97;5030234;28;19924;-75
2022/08/21 07:20:45;;;;;;;;;;;;;;;24.95;57.02;98890.78;5030470;28;19928;-75
2022/08/21 07:23:12;;;;;;;;;;;;;;;24.98;54.39;98882.13;5031642;28;19913;-75
2022/08/21 07:25:37;;;;;;;;;;;;;;;25.01;57.56;98893.16;5031469;28;19947;-75
2022/08/21 07:28:03;;;;;;;;;;;;;;;24.97;57.91;98886.72;5031299;28;20398;-75
2022/08/21 07:30:28;;;;;;;;;;;;;;;25.00;58.97;98879.94;5031504;28;20003;-75
2022/08/21 07:32:54;;;;;;;;;;;;;;;24.94;58.29;98878.38;5031592;28;19910;-75
2022/08/21 07:35:20;;;;;;;;;;;;;;;24.96;57.29;98874.28;5063481;28;19909;-75
2022/08/21 07:37:46;;;;;;;;;;;;;;;25.02;58.82;98862.34;5063429;28;19916;-75
2022/08/21 07:40:11;;;;;;;;;;;;;;;25.04;58.29;98853.97;5031611;28;19916;-75
2022/08/21 07:42:43;;;;;;;;;;;;;;;25.13;56.65;98844.13;5031346;28;19913;-75
2022/08/21 07:45:09;;;;;;;;;;;;;;;25.22;57.53;98844.28;5031318;28;19916;-75
2022/08/21 07:47:34;;;;;;;;;;;;;;;25.17;57.01;98853.25;5031296;28;19913;-75
2022/08/21 07:50:00;;;;;;;;;;;;;;;25.19;58.31;98850.25;5031489;28;19925;-75
2022/08/21 07:52:25;;;;;;;;;;;;;;;25.15;58.73;98858.13;5031476;28;19909;-75
2022/08/21 07:54:50;;;;;;;;;;;;;;;25.12;57.79;98852.50;5030081;28;20323;-75
2022/08/21 07:57:16;;;;;;;;;;;;;;;25.05;58.65;98839.38;5031357;28;19959;-75
2022/08/21 07:59:41;;;;;;;;;;;;;;;25.12;57.64;98841.72;5034158;28;20383;-75
2022/08/21 08:02:06;;;;;;;;;;;;;;;25.25;57.01;98843.69;5034926;28;19924;-75
2022/08/21 08:04:31;;;;;;;;;;;;;;;25.37;57.27;98843.28;5035008;28;20389;-75
2022/08/21 08:06:57;;;;;;;;;;;;;;;25.49;57.15;98835.53;5034805;28;19913;-75
2022/08/21 08:09:22;;;;;;;;;;;;;;;25.58;57.71;98829.19;5034717;28;19948;-75
2022/08/21 08:11:47;;;;;;;;;;;;;;;25.69;57.78;98832.56;5033561;28;19913;-75
2022/08/21 08:14:12;;;;;;;;;;;;;;;25.77;55.78;98826.47;5034956;28;19979;-75
2022/08/21 08:16:38;;;;;;;;;;;;;;;25.92;54.99;98815.41;5034613;28;19913;-75
2022/08/21 08:19:03;;;;;;;;;;;;;;;26.00;54.97;98813.13;5033419;28;20294;-75
2022/08/21 08:21:29;;;;;;;;;;;;;;;26.02;55.51;98829.91;5033124;28;20451;-75
2022/08/21 08:23:54;;;;;;;;;;;;;;;26.11;54.48;98823.50;5034552;28;19931;-75
2022/08/21 08:26:19;;;;;;;;;;;;;;;26.26;53.66;98836.75;5034483;28;20356;-75
2022/08/21 08:28:46;;;;;;;;;;;;;;;26.32;54.12;98826.66;5033128;28;20321;-75
2022/08/21 08:31:12;;;;;;;;;;;;;;;26.39;54.03;98829.81;5034484;28;19909;-75
2022/08/21 08:33:37;;;;;;;;;;;;;;;26.43;53.49;98838.94;5034663;28;19916;-75
2022/08/21 08:36:03;;;;;;;;;;;;;;;26.52;54.18;98828.22;5034369;28;19909;-75
2022/08/21 08:38:28;;;;;;;;;;;;;;;26.57;53.59;98828.09;5034292;28;19999;-75
2022/08/21 08:41:12;;;;;;;;;;;;;;;26.62;53.28;98833.44;5034324;28;19909;-75
2022/08/21 08:43:38;;;;;;;;;;;;;;;26.70;52.86;98832.72;5034358;28;20302;-75
2022/08/21 08:46:08;;;;;;;;;;;;;;;26.80;53.15;98824.44;5033892;28;19962;-75
2022/08/21 08:48:39;;;;;;;;;;;;;;;26.82;54.12;98819.50;5034026;28;19967;-75
2022/08/21 08:51:09;;;;;;;;;;;;;;;26.87;53.39;98822.09;5066152;28;19913;-75
2022/08/21 08:53:45;;;;;;;;;;;;;;;26.88;52.49;98812.06;5034110;28;19909;-75
2022/08/21 08:56:10;;;;;;;;;;;;;;;27.00;51.66;98806.97;5032755;28;19960;-75
2022/08/21 08:58:40;;;;;;;;;;;;;;;27.17;52.51;98812.56;5034024;28;19947;-75
2022/08/21 09:01:11;;;;;;;;;;;;;;;27.35;51.49;98810.00;5033976;28;19909;-75
2022/08/21 09:03:37;;;;;;;;;;;;;;;27.54;51.13;98807.97;5033739;28;19999;-76
2022/08/21 09:06:06;;;;;;;;;;;;;;;27.82;49.87;98811.38;5032433;28;20516;-75
2022/08/21 09:08:57;;;;;;;;;;;;;;;28.11;49.46;98813.63;5033767;28;19913;-75
2022/08/21 09:11:23;;;;;;;;;;;;;;;27.98;49.66;98814.50;5017605;28;19912;-75
2022/08/21 09:13:52;;;;;;;;;;;;;;;27.96;49.37;98812.09;5033582;28;19915;-75
2022/08/21 09:16:27;;;;;;;;;;;;;;;27.77;50.42;98814.22;5065572;28;19996;-75
2022/08/21 09:19:18;;;;;;;;;;;;;;;27.68;50.66;98814.16;5033583;28;19917;-75
2022/08/21 09:21:49;;;;;;;;;;;;;;;27.48;50.47;98809.97;5029751;28;19913;-75
2022/08/21 09:24:26;;;;;;;;;;;;;;;27.36;50.67;98812.41;5065243;28;19908;-75
2022/08/21 09:26:51;;;;;;;;;;;;;;;27.31;50.55;98817.16;5033342;28;19956;-75
2022/08/21 09:29:20;;;;;;;;;;;;;;;27.22;51.57;98817.06;5065268;28;20338;-75
2022/08/21 09:31:45;;;;;;;;;;;;;;;27.21;50.50;98818.97;5033062;28;20328;-75
2022/08/21 09:34:12;;;;;;;;;;;;;;;27.09;51.37;98810.56;5032935;28;19909;-75
2022/08/21 09:36:46;;;;;;;;;;;;;;;27.14;51.49;98807.75;5033166;28;19909;-75
2022/08/21 09:39:13;;;;;;;;;;;;;;;27.12;52.26;98809.16;5033070;28;19940;-75
2022/08/21 09:41:38;;;;;;;;;;;;;;;27.11;51.56;98805.66;5033000;28;19909;-75
2022/08/21 09:44:05;;;;;;;;;;;;;;;27.10;51.31;98806.75;5032998;28;19916;-75
2022/08/21 09:46:31;;;;;;;;;;;;;;;27.10;52.02;98805.94;5032782;28;20404;-75
2022/08/21 09:48:59;;;;;;;;;;;;;;;27.11;52.90;98805.66;5064810;28;19909;-75
2022/08/21 09:51:29;;;;;;;;;;;;;;;26.97;52.70;98802.13;5031626;28;20305;-75
2022/08/21 09:54:10;;;;;;;;;;;;;;;27.01;52.58;98808.56;5031461;28;19921;-75
2022/08/21 09:59:54;;;;;;;;;;;;;;;27.08;51.32;98816.28;4991356;28;20004;-75
2022/08/21 10:02:28;;;;;;;;;;;;;;;27.11;50.52;98812.97;5029351;28;20385;-75
2022/08/21 10:04:55;;;;;;;;;;;;;;;27.27;50.60;98816.16;5064512;28;20381;-75
2022/08/21 10:07:21;;;;;;;;;;;;;;;27.33;50.00;98804.88;5032264;28;20378;-75
2022/08/21 10:09:57;;;;;;;;;;;;;;;27.58;49.80;98800.81;5032421;28;20405;-75
2022/08/21 10:12:26;;;;;;;;;;;;;;;27.74;50.02;98798.56;5032468;28;19932;-75
2022/08/21 10:14:51;;;;;;;;;;;;;;;28.07;48.61;98790.94;5032498;28;19916;-76
2022/08/21 10:17:43;;;;;;;;;;;;;;;28.41;47.63;98795.78;5032267;28;19917;-75
2022/08/21 10:20:19;;;;;;;;;;;;;;;28.75;46.87;98797.81;5030099;28;20397;-75
2022/08/21 10:22:45;;;;;;;;;;;;;;;29.10;46.30;98796.03;5031867;28;20386;-75
2022/08/21 10:25:13;;;;;;;;;;;;;;;29.40;45.37;98788.84;5064154;28;19916;-76
2022/08/21 10:27:49;;;;;;;;;;;;;;;29.60;44.49;98790.94;5032013;28;19913;-75
2022/08/21 10:30:25;;;;;;;;;;;;;;;29.76;43.91;98785.03;5032165;28;19944;-75
2022/08/21 10:33:13;;;;;;;;;;;;;;;29.83;43.55;98783.41;5032261;28;19909;-75
2022/08/21 10:35:57;;;;;;;;;;;;;;;29.90;43.10;98786.44;5031860;28;20374;-75
2022/08/21 10:38:37;;;;;;;;;;;;;;;29.94;43.45;98773.78;5032084;28;19968;-76
2022/08/21 10:41:14;;;;;;;;;;;;;;;30.21;42.57;98771.81;5064079;28;19909;-75
2022/08/21 10:43:52;;;;;;;;;;;;;;;30.67;42.44;98771.00;5031986;28;20310;-75
2022/08/21 10:46:23;;;;;;;;;;;;;;;31.29;40.50;98765.66;5031973;28;20436;-75
2022/08/21 10:48:56;;;;;;;;;;;;;;;31.75;40.66;98765.75;5031880;28;19968;-76
2022/08/21 10:51:35;;;;;;;;;;;;;;;32.01;38.69;98757.28;5031941;28;19909;-75
2022/08/21 10:54:05;;;;;;;;;;;;;;;32.20;40.07;98761.06;5031917;28;19920;-75
2022/08/21 10:56:32;;;;;;;;;;;;;;;32.50;38.99;98760.88;5032005;28;20067;-75
2022/08/21 10:59:23;;;;;;;;;;;;;;;32.81;38.29;98757.63;5031823;28;19915;-76
2022/08/21 11:01:52;;;;;;;;;;;;;;;33.25;35.85;98749.53;5031987;28;19924;-75
2022/08/21 11:04:17;;;;;;;;;;;;;;;33.33;35.89;98754.09;5031779;28;19909;-75
2022/08/21 11:06:46;;;;;;;;;;;;;;;33.08;37.12;98745.94;5031528;28;20417;-75
2022/08/21 11:09:17;;;;;;;;;;;;;;;32.90;36.67;98741.09;5031490;28;19909;-75
2022/08/21 11:11:46;;;;;;;;;;;;;;;32.76;37.47;98736.75;5031704;28;20000;-75
2022/08/21 11:14:18;;;;;;;;;;;;;;;32.77;37.24;98738.38;5031663;28;19916;-75
2022/08/21 11:16:48;;;;;;;;;;;;;;;32.49;37.82;98735.50;5031479;28;19909;-76
2022/08/21 11:19:32;;;;;;;;;;;;;;;32.23;38.13;98724.88;5031732;28;19959;-75
2022/08/21 11:22:10;;;;;;;;;;;;;;;31.97;38.64;98729.06;5030161;28;19916;-75
2022/08/21 11:24:51;;;;;;;;;;;;;;;31.77;38.91;98725.25;5031493;28;19915;-75
2022/08/21 11:27:32;;;;;;;;;;;;;;;31.91;38.90;98725.72;5031437;28;19914;-75
2022/08/21 11:29:59;;;;;;;;;;;;;;;31.84;38.86;98718.09;5063518;28;19941;-75
2022/08/21 11:32:36;;;;;;;;;;;;;;;31.78;39.26;98721.38;5031304;28;19920;-75
2022/08/21 11:35:07;;;;;;;;;;;;;;;31.68;39.27;98708.94;5034585;28;20374;-75
2022/08/21 11:37:51;;;;;;;;;;;;;;;31.59;39.66;98710.97;5067462;28;19909;-75
2022/08/21 11:40:35;;;;;;;;;;;;;;;31.54;40.04;98706.50;5035367;28;19905;-76
2022/08/21 11:43:21;;;;;;;;;;;;;;;31.54;40.22;98697.53;5035310;28;19948;-76
2022/08/21 11:45:59;;;;;;;;;;;;;;;31.51;40.03;98699.00;5028187;28;19974;-75
2022/08/21 11:48:24;;;;;;;;;;;;;;;31.50;40.07;98691.94;5035071;28;19960;-76
2022/08/21 11:50:51;;;;;;;;;;;;;;;31.41;40.17;98679.53;5035189;28;19916;-75
2022/08/21 11:53:16;;;;;;;;;;;;;;;31.41;39.82;98685.00;5035013;28;19908;-75
2022/08/21 11:55:50;;;;;;;;;;;;;;;31.36;40.03;98675.09;5067184;28;19958;-75
2022/08/21 11:58:26;;;;;;;;;;;;;;;31.25;40.28;98679.38;5035133;28;19909;-76
2022/08/21 12:00:57;;;;;;;;;;;;;;;31.24;40.23;98675.84;5033643;28;20322;-75
2022/08/21 12:03:26;;;;;;;;;;;;;;;31.23;40.20;98674.25;5034679;28;19909;-75
2022/08/21 12:05:53;;;;;;;;;;;;;;;31.28;39.69;98665.84;5035069;28;19909;-75
2022/08/21 12:08:37;;;;;;;;;;;;;;;31.29;39.85;98672.13;5034870;28;19913;-75
2022/08/21 12:11:08;;;;;;;;;;;;;;;31.39;39.35;98666.22;5034797;28;19909;-76
2022/08/21 12:13:35;;;;;;;;;;;;;;;31.45;39.52;98664.09;5034683;28;20055;-75
2022/08/21 12:16:07;;;;;;;;;;;;;;;31.64;39.53;98661.63;5031329;28;19919;-75
2022/08/21 12:18:32;;;;;;;;;;;;;;;31.65;38.90;98655.03;5033146;28;20015;-75
2022/08/21 12:21:16;;;;;;;;;;;;;;;31.68;38.98;98650.81;5034442;28;20002;-75
2022/08/21 12:23:44;;;;;;;;;;;;;;;31.69;38.51;98649.69;5033716;28;19920;-76
2022/08/21 12:26:13;;;;;;;;;;;;;;;31.66;38.94;98644.91;5034521;28;19909;-75
2022/08/21 12:28:38;;;;;;;;;;;;;;;31.67;39.03;98638.31;5034190;28;19913;-75
2022/08/21 12:31:04;;;;;;;;;;;;;;;31.77;38.97;98638.69;5034398;28;19920;-75
2022/08/21 12:33:31;;;;;;;;;;;;;;;31.91;38.22;98643.81;5034300;28;20313;-76
2022/08/21 12:36:14;;;;;;;;;;;;;;;32.03;38.13;98640.34;5032932;28;19992;-75
2022/08/21 12:38:51;;;;;;;;;;;;;;;32.23;37.69;98640.22;5034034;28;20287;-75
2022/08/21 12:41:22;;;;;;;;;;;;;;;32.49;37.00;98637.13;5034208;28;20301;-75
2022/08/21 12:43:51;;;;;;;;;;;;;;;32.69;36.80;98640.81;5034173;28;19999;-75
2022/08/21 12:46:18;;;;;;;;;;;;;;;32.78;36.76;98643.47;5033853;28;19906;-75
2022/08/21 12:48:46;;;;;;;;;;;;;;;32.92;36.56;98632.16;5033991;28;20015;-75
2022/08/21 12:51:22;;;;;;;;;;;;;;;33.12;36.64;98631.94;5033995;28;19916;-75
2022/08/21 12:53:48;;;;;;;;;;;;;;;33.43;34.89;98628.50;5032706;28;20383;-75